Time;durP1;ratioP1;P1;durP2;ratioP2;P2;SDS_P1;SDS_P2;PMS_P1;PMS_P2;Temp;Humidity;BMP_temperature;BMP_pressure;BME280_temperature;BME280_humidity;BME280_pressure;Samples;Min_cycle;Max_cycle;Signal;HPM_P1;HPM_P2
2022/08/09 00:02:25;;;;;;;3.08;1.90;;;14.50;79.50;;;;;;5055595;28;20243;-88
2022/08/09 00:04:51;;;;;;;4.00;2.05;;;14.40;79.90;;;;;;5055560;28;20168;-87
2022/08/09 00:07:16;;;;;;;3.53;2.10;;;14.40;79.50;;;;;;5037833;28;20196;-87
2022/08/09 00:09:42;;;;;;;2.25;1.70;;;14.40;79.20;;;;;;5037608;28;20172;-86
2022/08/09 00:12:08;;;;;;;2.95;1.85;;;14.50;78.80;;;;;;5038028;28;20199;-86
2022/08/09 00:14:35;;;;;;;3.45;2.00;;;14.40;78.40;;;;;;5055398;28;20180;-87
2022/08/09 00:17:00;;;;;;;2.72;1.80;;;14.40;78.20;;;;;;5055320;28;20748;-87
2022/08/09 00:19:26;;;;;;;3.03;2.15;;;14.30;78.10;;;;;;5037466;28;20260;-88
2022/08/09 00:21:51;;;;;;;1.70;1.60;;;14.30;78.20;;;;;;5037760;28;20199;-86
2022/08/09 00:24:17;;;;;;;2.33;2.00;;;14.30;78.20;;;;;;5037301;28;20168;-86
2022/08/09 00:26:43;;;;;;;4.50;2.70;;;14.30;78.20;;;;;;5054935;28;20249;-87
2022/08/09 00:29:08;;;;;;;2.40;2.10;;;14.20;78.20;;;;;;5037757;28;20194;-87
2022/08/09 00:31:34;;;;;;;2.95;2.50;;;14.20;78.20;;;;;;5037246;28;20180;-86
2022/08/09 00:33:59;;;;;;;2.92;2.60;;;14.20;78.20;;;;;;5037019;28;20176;-87
2022/08/09 00:36:25;;;;;;;4.68;2.70;;;14.10;79.40;;;;;;5037029;28;20747;-86
2022/08/09 00:38:51;;;;;;;3.27;2.50;;;14.00;80.70;;;;;;5054963;28;20538;-87
2022/08/09 00:41:21;;;;;;;2.60;2.40;;;13.90;81.70;;;;;;5037048;28;20188;-87
2022/08/09 00:43:50;;;;;;;5.13;2.90;;;13.90;82.40;;;;;;5054726;28;20654;-87
2022/08/09 00:46:17;;;;;;;4.43;3.40;;;13.80;83.60;;;;;;5036775;28;20701;-88
2022/08/09 00:48:42;;;;;;;4.73;3.20;;;13.80;84.20;;;;;;5036856;28;20590;-87
2022/08/09 00:51:08;;;;;;;4.80;3.37;;;13.60;85.40;;;;;;5036893;28;20176;-88
2022/08/09 00:53:35;;;;;;;3.70;3.20;;;13.60;85.50;;;;;;5054507;28;20168;-85
2022/08/09 00:56:02;;;;;;;3.07;2.77;;;13.60;85.60;;;;;;5054353;28;20188;-85
2022/08/09 00:58:29;;;;;;;4.20;2.80;;;13.70;85.10;;;;;;5054092;28;20713;-85
2022/08/09 01:00:56;;;;;;;2.80;2.60;;;13.70;84.60;;;;;;5036449;28;20556;-85
2022/08/09 01:03:43;;;;;;;3.23;2.70;;;13.60;84.40;;;;;;5054524;28;20172;-85
2022/08/09 01:06:13;;;;;;;3.03;2.53;;;13.60;84.30;;;;;;5036254;28;20199;-86
2022/08/09 01:08:41;;;;;;;3.27;2.70;;;13.60;85.10;;;;;;5054155;28;20191;-85
2022/08/09 01:11:27;;;;;;;4.20;2.70;;;13.60;84.90;;;;;;5054158;28;20192;-85
2022/08/09 01:14:03;;;;;;;2.63;2.37;;;13.60;84.50;;;;;;5054335;28;20251;-85
2022/08/09 01:16:38;;;;;;;4.00;3.27;;;13.60;84.00;;;;;;5053970;28;20337;-85
2022/08/09 01:19:28;;;;;;;4.73;2.97;;;13.60;83.90;;;;;;5054264;28;20191;-86
2022/08/09 01:22:04;;;;;;;11.20;3.60;;;13.50;85.00;;;;;;5036028;28;20286;-85
2022/08/09 01:24:43;;;;;;;6.97;3.03;;;13.50;85.60;;;;;;5036087;28;20179;-86
2022/08/09 01:27:13;;;;;;;5.00;2.80;;;13.50;85.50;;;;;;5035797;28;20333;-85
2022/08/09 01:29:45;;;;;;;2.80;2.20;;;13.50;85.80;;;;;;5036031;28;20222;-85
2022/08/09 01:32:14;;;;;;;2.40;2.20;;;13.50;85.40;;;;;;5037180;28;20554;-85
2022/08/09 01:34:43;;;;;;;3.77;2.40;;;13.60;84.80;;;;;;5035849;28;20184;-85
2022/08/09 01:37:11;;;;;;;4.77;2.30;;;13.50;84.30;;;;;;5035831;28;20206;-85
2022/08/09 01:39:40;;;;;;;5.20;2.50;;;13.50;83.80;;;;;;5053528;28;20529;-85
2022/08/09 01:42:07;;;;;;;2.80;2.40;;;13.50;83.60;;;;;;5035596;28;20253;-85
2022/08/09 01:44:33;;;;;;;3.43;2.37;;;13.40;83.80;;;;;;5053446;28;20175;-85
2022/08/09 01:47:01;;;;;;;2.63;2.43;;;13.40;83.50;;;;;;5035510;28;20582;-85
2022/08/09 01:49:29;;;;;;;3.87;2.00;;;13.30;83.20;;;;;;5035578;28;20176;-85
2022/08/09 01:51:59;;;;;;;4.80;2.30;;;13.30;83.00;;;;;;5035572;28;20229;-86
2022/08/09 01:54:49;;;;;;;2.47;2.27;;;13.30;83.00;;;;;;5036649;28;20186;-85
2022/08/09 01:57:22;;;;;;;2.80;2.37;;;13.30;82.90;;;;;;5035396;28;20203;-85
2022/08/09 01:59:51;;;;;;;3.67;2.37;;;13.20;83.20;;;;;;5035617;28;20184;-86
2022/08/09 02:02:21;;;;;;;2.53;2.33;;;13.10;83.00;;;;;;5053139;28;20203;-85
2022/08/09 02:04:48;;;;;;;3.53;2.30;;;13.10;83.10;;;;;;5053504;28;20173;-85
2022/08/09 02:07:17;;;;;;;4.60;2.03;;;13.00;83.10;;;;;;5035623;28;20196;-85
2022/08/09 02:09:52;;;;;;;3.13;2.23;;;13.00;82.90;;;;;;5052593;28;20187;-86
2022/08/09 02:12:21;;;;;;;4.80;2.27;;;13.00;82.90;;;;;;5053495;28;20187;-85
2022/08/09 02:14:51;;;;;;;2.50;2.20;;;12.90;83.10;;;;;;5035295;28;20183;-85
2022/08/09 02:17:23;;;;;;;3.90;2.63;;;12.90;83.00;;;;;;5035109;28;20294;-85
2022/08/09 02:19:49;;;;;;;2.93;2.30;;;12.90;82.90;;;;;;5053042;28;20179;-85
2022/08/09 02:22:35;;;;;;;2.33;2.10;;;12.90;82.70;;;;;;5035000;28;20712;-85
2022/08/09 02:25:06;;;;;;;4.20;2.10;;;12.90;82.50;;;;;;5035113;28;20164;-85
2022/08/09 02:27:35;;;;;;;3.67;2.10;;;12.90;82.30;;;;;;5052807;28;20207;-86
2022/08/09 02:30:02;;;;;;;2.97;2.23;;;12.90;82.10;;;;;;5035660;28;20172;-86
2022/08/09 02:32:31;;;;;;;2.27;2.10;;;12.80;81.80;;;;;;5035068;28;20195;-85
2022/08/09 02:35:03;;;;;;;2.47;2.17;;;12.80;81.70;;;;;;5052887;28;20183;-85
2022/08/09 02:37:30;;;;;;;3.73;2.50;;;12.80;81.80;;;;;;5034972;28;20203;-85
2022/08/09 02:40:01;;;;;;;3.03;2.50;;;12.80;81.70;;;;;;5035014;28;20272;-85
2022/08/09 02:42:32;;;;;;;3.40;2.30;;;12.80;81.60;;;;;;5034980;28;20221;-85
2022/08/09 02:45:03;;;;;;;2.97;2.47;;;12.80;81.40;;;;;;5035119;28;20301;-85
2022/08/09 02:47:31;;;;;;;3.07;2.70;;;12.80;81.30;;;;;;5034969;28;20309;-85
2022/08/09 02:50:06;;;;;;;2.47;2.27;;;12.70;81.30;;;;;;5035542;28;20179;-85
2022/08/09 02:52:41;;;;;;;2.63;2.43;;;12.70;81.60;;;;;;5052730;28;20178;-85
2022/08/09 02:55:09;;;;;;;2.57;2.37;;;12.60;81.70;;;;;;5034756;28;20187;-85
2022/08/09 02:57:37;;;;;;;5.27;2.93;;;12.60;81.80;;;;;;5034757;28;20203;-85
2022/08/09 03:00:04;;;;;;;2.53;2.30;;;12.50;82.00;;;;;;5052573;28;20180;-85
2022/08/09 03:02:30;;;;;;;2.57;2.03;;;12.50;82.00;;;;;;5034687;28;20638;-85
2022/08/09 03:04:57;;;;;;;3.97;2.40;;;12.50;81.80;;;;;;5052621;28;20172;-86
2022/08/09 03:07:24;;;;;;;3.13;2.83;;;12.50;81.70;;;;;;5034776;28;20196;-85
2022/08/09 03:09:50;;;;;;;3.20;2.90;;;12.40;81.90;;;;;;5034797;28;20242;-85
2022/08/09 03:12:17;;;;;;;6.63;3.37;;;12.40;82.50;;;;;;5034559;28;20184;-85
2022/08/09 03:14:45;;;;;;;4.63;2.90;;;12.30;82.80;;;;;;5034647;28;20207;-85
2022/08/09 03:17:11;;;;;;;2.70;2.50;;;12.20;83.30;;;;;;5034929;28;20571;-85
2022/08/09 03:19:39;;;;;;;3.17;2.80;;;12.10;83.60;;;;;;5034700;28;20184;-85
2022/08/09 03:22:07;;;;;;;5.07;3.20;;;12.00;84.40;;;;;;5037700;28;20290;-85
2022/08/09 03:24:33;;;;;;;3.30;3.00;;;12.00;84.70;;;;;;5038642;28;20263;-85
2022/08/09 03:27:00;;;;;;;4.43;3.13;;;11.90;84.60;;;;;;5056157;28;20327;-86
2022/08/09 03:29:26;;;;;;;3.30;3.00;;;11.90;84.90;;;;;;5038346;28;20187;-86
2022/08/09 03:31:54;;;;;;;3.97;2.83;;;11.90;85.20;;;;;;5038262;28;20261;-86
2022/08/09 03:34:19;;;;;;;2.70;2.43;;;12.00;85.10;;;;;;5056107;28;20249;-86
2022/08/09 03:36:45;;;;;;;3.17;2.50;;;12.00;85.00;;;;;;5038043;28;20686;-86
2022/08/09 03:39:11;;;;;;;3.73;2.37;;;12.00;84.80;;;;;;5055981;28;20183;-86
2022/08/09 03:41:37;;;;;;;2.90;2.60;;;12.00;84.60;;;;;;5038723;28;20555;-86
2022/08/09 03:44:02;;;;;;;3.13;2.70;;;12.00;84.50;;;;;;5055823;28;20589;-86
2022/08/09 03:46:28;;;;;;;3.30;3.00;;;12.00;84.30;;;;;;5055725;28;20566;-86
2022/08/09 03:48:57;;;;;;;7.23;3.70;;;12.00;84.10;;;;;;5056001;28;20175;-86
2022/08/09 03:51:25;;;;;;;5.87;3.90;;;12.00;84.10;;;;;;5037881;28;20545;-85
2022/08/09 03:53:52;;;;;;;9.20;3.87;;;12.00;84.60;;;;;;5037844;28;20176;-86
2022/08/09 03:56:18;;;;;;;5.10;3.93;;;12.00;84.80;;;;;;5037661;28;20200;-86
2022/08/09 03:58:43;;;;;;;4.30;4.00;;;11.90;85.40;;;;;;5037711;28;20183;-86
2022/08/09 04:01:10;;;;;;;5.70;3.10;;;12.00;85.30;;;;;;5038856;28;20211;-86
2022/08/09 04:03:37;;;;;;;4.40;3.20;;;12.00;85.00;;;;;;5037710;28;20218;-87
2022/08/09 04:06:03;;;;;;;4.83;3.07;;;12.10;84.60;;;;;;5055747;28;20192;-85
2022/08/09 04:08:28;;;;;;;4.50;3.20;;;12.20;84.30;;;;;;5037615;28;20179;-86
2022/08/09 04:10:54;;;;;;;5.97;3.93;;;12.20;84.10;;;;;;5054088;28;20548;-86
2022/08/09 04:13:20;;;;;;;4.87;3.87;;;12.40;83.80;;;;;;5055230;28;20184;-86
2022/08/09 04:15:45;;;;;;;5.43;4.40;;;12.60;83.50;;;;;;5037247;28;20196;-86
2022/08/09 04:18:12;;;;;;;6.00;4.80;;;12.80;83.20;;;;;;5037373;28;20271;-86
2022/08/09 04:20:37;;;;;;;8.13;4.63;;;12.80;83.20;;;;;;5037332;28;20179;-86
2022/08/09 04:23:04;;;;;;;5.17;4.67;;;12.80;83.20;;;;;;5037271;28;20208;-86
2022/08/09 04:25:30;;;;;;;9.50;5.90;;;12.80;83.30;;;;;;5037523;28;20552;-86
2022/08/09 04:27:56;;;;;;;7.33;5.33;;;12.90;83.20;;;;;;5037214;28;20187;-86
2022/08/09 04:30:22;;;;;;;8.53;5.70;;;12.90;83.40;;;;;;5037093;28;20658;-86
2022/08/09 04:32:48;;;;;;;8.07;5.73;;;12.90;83.90;;;;;;5036376;28;20271;-86
2022/08/09 04:35:13;;;;;;;5.40;4.80;;;12.90;83.90;;;;;;5054914;28;20207;-86
2022/08/09 04:37:39;;;;;;;5.37;4.87;;;12.90;84.20;;;;;;5054986;28;20211;-86
2022/08/09 04:40:06;;;;;;;6.47;4.60;;;12.90;84.20;;;;;;5037095;28;20271;-86
2022/08/09 04:42:32;;;;;;;5.03;4.43;;;13.00;84.20;;;;;;5054583;28;20291;-86
2022/08/09 04:44:59;;;;;;;7.00;4.60;;;13.00;84.10;;;;;;5036846;28;20230;-86
2022/08/09 04:47:26;;;;;;;6.30;4.70;;;13.10;83.90;;;;;;5054876;28;20199;-85
2022/08/09 04:49:52;;;;;;;7.90;4.93;;;13.00;83.70;;;;;;5054736;28;20601;-86
2022/08/09 04:52:18;;;;;;;9.30;5.07;;;13.00;83.60;;;;;;5036749;28;20207;-86
2022/08/09 04:54:44;;;;;;;6.50;4.57;;;13.00;83.50;;;;;;5054549;28;20202;-86
2022/08/09 04:57:10;;;;;;;6.13;5.53;;;13.00;83.50;;;;;;5036495;28;20286;-86
2022/08/09 04:59:36;;;;;;;8.13;6.33;;;12.90;83.50;;;;;;5036517;28;20187;-86
2022/08/09 05:02:01;;;;;;;9.80;6.63;;;13.10;84.30;;;;;;5036441;28;20203;-86
2022/08/09 05:04:27;;;;;;;8.07;7.30;;;13.20;84.80;;;;;;5036339;28;20172;-86
2022/08/09 05:06:52;;;;;;;8.10;6.77;;;13.20;85.50;;;;;;5036313;28;20211;-86
2022/08/09 05:09:18;;;;;;;8.13;6.60;;;13.30;85.90;;;;;;5036392;28;20172;-86
2022/08/09 05:11:44;;;;;;;6.63;5.93;;;13.20;85.90;;;;;;5054721;28;20176;-86
2022/08/09 05:14:09;;;;;;;5.90;5.40;;;13.20;85.90;;;;;;5054421;28;20176;-86
2022/08/09 05:16:35;;;;;;;8.57;7.20;;;13.20;85.90;;;;;;5036305;28;20681;-86
2022/08/09 05:19:01;;;;;;;8.53;7.57;;;13.30;86.50;;;;;;5054040;28;20164;-86
2022/08/09 05:21:27;;;;;;;9.80;8.07;;;13.30;86.90;;;;;;5036161;28;20204;-86
2022/08/09 05:23:53;;;;;;;10.17;8.40;;;13.50;87.60;;;;;;5053955;28;20186;-86
2022/08/09 05:26:19;;;;;;;10.67;9.13;;;13.70;88.00;;;;;;5035917;28;20313;-86
2022/08/09 05:28:45;;;;;;;9.93;8.63;;;13.80;88.40;;;;;;5035948;28;20542;-85
2022/08/09 05:31:10;;;;;;;11.67;8.83;;;13.70;88.70;;;;;;5035962;28;20182;-86
2022/08/09 05:33:36;;;;;;;15.37;9.40;;;13.80;89.10;;;;;;5035943;28;20177;-86
2022/08/09 05:36:03;;;;;;;14.00;9.23;;;13.80;89.30;;;;;;5053820;28;20768;-85
2022/08/09 05:38:29;;;;;;;11.00;8.87;;;13.80;89.40;;;;;;5053570;28;20218;-85
2022/08/09 05:40:55;;;;;;;12.53;8.87;;;13.90;89.60;;;;;;5053670;28;20172;-86
2022/08/09 05:43:20;;;;;;;10.63;9.33;;;14.00;89.80;;;;;;5035324;28;20210;-85
2022/08/09 05:45:46;;;;;;;9.80;8.80;;;14.00;89.80;;;;;;5034899;28;20295;-84
2022/08/09 05:48:12;;;;;;;11.87;9.80;;;14.10;89.80;;;;;;5035903;28;20180;-85
2022/08/09 05:50:40;;;;;;;12.87;9.50;;;14.20;89.90;;;;;;5035825;28;20176;-85
2022/08/09 05:53:06;;;;;;;13.23;9.00;;;14.20;89.90;;;;;;5035497;28;20214;-85
2022/08/09 05:55:31;;;;;;;13.87;9.17;;;14.30;89.90;;;;;;5035392;28;20223;-86
2022/08/09 05:57:57;;;;;;;11.53;9.00;;;14.40;89.90;;;;;;5053408;28;20186;-86
2022/08/09 06:00:27;;;;;;;9.80;8.80;;;14.40;89.80;;;;;;5035516;28;20642;-88
2022/08/09 06:02:55;;;;;;;18.63;8.77;;;14.60;89.80;;;;;;5035516;28;20203;-86
2022/08/09 06:05:21;;;;;;;14.13;9.07;;;14.70;89.80;;;;;;5053192;28;20168;-85
2022/08/09 06:07:46;;;;;;;10.43;8.80;;;14.80;89.70;;;;;;5053570;28;20176;-85
2022/08/09 06:10:14;;;;;;;11.50;8.43;;;14.80;89.50;;;;;;5053263;28;20207;-85
2022/08/09 06:12:40;;;;;;;11.90;8.53;;;15.00;89.60;;;;;;5035251;28;20234;-86
2022/08/09 06:15:06;;;;;;;11.50;8.30;;;15.00;89.40;;;;;;5035268;28;20661;-86
2022/08/09 06:17:32;;;;;;;10.50;7.37;;;15.00;89.30;;;;;;5035199;28;20206;-86
2022/08/09 06:19:57;;;;;;;8.87;7.17;;;15.10;89.30;;;;;;5035192;28;20594;-86
2022/08/09 06:22:23;;;;;;;9.50;7.60;;;15.20;89.20;;;;;;5035241;28;20207;-86
2022/08/09 06:24:48;;;;;;;8.70;7.80;;;15.30;89.20;;;;;;5035184;28;20176;-86
2022/08/09 06:27:14;;;;;;;12.43;7.40;;;15.50;89.20;;;;;;5052974;28;20207;-86
2022/08/09 06:29:39;;;;;;;13.20;7.57;;;15.60;89.00;;;;;;5052943;28;20207;-86
2022/08/09 06:32:05;;;;;;;9.75;7.10;;;15.70;88.90;;;;;;5035173;28;20240;-86
2022/08/09 06:34:31;;;;;;;7.75;6.93;;;15.90;88.80;;;;;;5035104;28;20184;-86
2022/08/09 06:36:56;;;;;;;8.15;7.25;;;16.00;88.40;;;;;;5052753;28;20203;-86
2022/08/09 06:39:22;;;;;;;9.80;6.28;;;16.20;88.30;;;;;;5035038;28;20180;-86
2022/08/09 06:41:47;;;;;;;9.02;6.57;;;16.20;87.80;;;;;;5052827;28;20282;-86
2022/08/09 06:44:13;;;;;;;7.13;6.10;;;16.30;87.70;;;;;;5053121;28;20164;-86
2022/08/09 06:46:40;;;;;;;8.95;5.75;;;16.50;87.40;;;;;;5035575;28;20196;-86
2022/08/09 06:49:05;;;;;;;9.70;5.47;;;16.70;87.20;;;;;;5035008;28;20168;-86
2022/08/09 06:51:33;;;;;;;11.13;4.70;;;16.80;86.90;;;;;;5034976;28;20176;-86
2022/08/09 06:53:58;;;;;;;10.75;4.80;;;17.00;86.20;;;;;;5053008;28;20196;-86
2022/08/09 06:56:24;;;;;;;5.38;4.28;;;17.10;85.60;;;;;;5037162;28;20223;-86
2022/08/09 06:58:49;;;;;;;6.72;4.38;;;17.20;85.60;;;;;;5038865;28;20271;-85
2022/08/09 07:01:15;;;;;;;9.18;4.10;;;17.30;84.80;;;;;;5038749;28;20180;-85
2022/08/09 07:03:40;;;;;;;4.28;3.88;;;17.40;84.30;;;;;;5038700;28;20183;-86
2022/08/09 07:06:06;;;;;;;6.95;3.85;;;17.50;84.10;;;;;;5056516;28;20610;-86
2022/08/09 07:08:33;;;;;;;5.07;4.07;;;17.60;83.80;;;;;;5038795;28;20645;-86
2022/08/09 07:11:01;;;;;;;4.90;3.83;;;17.70;83.40;;;;;;5056497;28;20172;-86
2022/08/09 07:13:27;;;;;;;6.03;4.07;;;17.80;83.40;;;;;;5038896;28;20210;-85
2022/08/09 07:15:52;;;;;;;7.55;3.78;;;17.80;83.10;;;;;;5038705;28;20287;-85
2022/08/09 07:18:18;;;;;;;8.88;3.78;;;17.90;83.00;;;;;;5056377;28;20225;-85
2022/08/09 07:20:44;;;;;;;7.60;4.18;;;18.10;83.10;;;;;;5038563;28;20183;-85
2022/08/09 07:23:11;;;;;;;4.25;3.60;;;18.20;82.50;;;;;;5056447;28;20206;-84
2022/08/09 07:25:36;;;;;;;5.28;3.72;;;18.20;81.60;;;;;;5056115;28;20161;-86
2022/08/09 07:28:02;;;;;;;5.20;3.25;;;18.30;81.20;;;;;;5056351;28;20260;-86
2022/08/09 07:30:27;;;;;;;4.20;2.80;;;18.40;81.40;;;;;;5038308;28;20528;-87
2022/08/09 07:32:53;;;;;;;3.38;2.83;;;18.60;81.60;;;;;;5038211;28;20745;-89
2022/08/09 07:35:18;;;;;;;5.63;2.72;;;18.70;80.10;;;;;;5038168;28;20178;-85
2022/08/09 07:37:44;;;;;;;3.28;2.90;;;18.70;79.60;;;;;;5038165;28;20283;-84
2022/08/09 07:40:19;;;;;;;5.03;3.03;;;18.70;80.10;;;;;;5038251;28;20650;-86
2022/08/09 07:42:54;;;;;;;5.35;2.50;;;18.70;80.20;;;;;;5038036;28;20233;-87
2022/08/09 07:45:24;;;;;;;8.65;3.17;;;18.70;79.90;;;;;;5055725;28;20172;-86
2022/08/09 07:47:51;;;;;;;4.63;2.67;;;18.70;80.20;;;;;;5037860;28;20168;-86
2022/08/09 07:50:17;;;;;;;7.18;3.20;;;18.80;78.70;;;;;;5037895;28;20558;-86
2022/08/09 07:52:43;;;;;;;4.68;2.90;;;18.90;79.00;;;;;;5037812;28;20276;-86
2022/08/09 07:55:08;;;;;;;4.25;2.95;;;19.00;78.20;;;;;;5055686;28;20623;-86
2022/08/09 07:57:34;;;;;;;2.53;2.33;;;19.10;77.40;;;;;;5055577;28;20674;-85
2022/08/09 08:00:00;;;;;;;7.78;2.80;;;19.30;77.80;;;;;;5037717;28;20223;-86
2022/08/09 08:02:25;;;;;;;5.43;2.90;;;19.10;77.30;;;;;;5055430;28;20592;-85
2022/08/09 08:04:51;;;;;;;4.10;2.70;;;19.20;78.50;;;;;;5055441;28;20720;-85
2022/08/09 08:07:16;;;;;;;2.80;2.60;;;19.40;77.30;;;;;;5036423;28;20560;-85
2022/08/09 08:09:42;;;;;;;5.32;3.30;;;19.50;76.60;;;;;;5037469;28;20539;-85
2022/08/09 08:12:07;;;;;;;8.88;2.60;;;19.60;76.20;;;;;;5055256;28;20180;-85
2022/08/09 08:14:33;;;;;;;4.43;2.58;;;19.60;75.60;;;;;;5037341;28;20554;-85
2022/08/09 08:16:58;;;;;;;10.10;2.83;;;19.70;76.40;;;;;;5037762;28;20249;-85
2022/08/09 08:19:24;;;;;;;4.50;2.47;;;19.70;76.50;;;;;;5037272;28;20180;-85
2022/08/09 08:21:51;;;;;;;7.80;3.05;;;19.70;76.40;;;;;;5055040;28;20199;-85
2022/08/09 08:24:17;;;;;;;6.35;2.97;;;19.70;76.00;;;;;;5055051;28;20218;-85
2022/08/09 08:26:43;;;;;;;5.10;2.40;;;20.00;76.90;;;;;;5037012;28;20208;-85
2022/08/09 08:29:08;;;;;;;5.28;2.63;;;20.10;76.00;;;;;;5037139;28;20180;-86
2022/08/09 08:31:34;;;;;;;7.70;2.90;;;20.20;74.80;;;;;;5055211;28;20242;-85
2022/08/09 08:33:59;;;;;;;7.63;3.10;;;20.20;73.80;;;;;;5037140;28;20188;-85
2022/08/09 08:36:25;;;;;;;13.45;2.33;;;20.30;73.50;;;;;;5037049;28;20202;-85
2022/08/09 08:38:51;;;;;;;2.65;2.20;;;20.50;73.30;;;;;;5036892;28;20172;-85
2022/08/09 08:41:16;;;;;;;3.22;1.98;;;20.60;72.30;;;;;;5036885;28;20179;-85
2022/08/09 08:43:43;;;;;;;3.97;1.85;;;20.50;71.30;;;;;;5036743;28;20206;-85
2022/08/09 08:46:11;;;;;;;3.10;1.95;;;20.80;71.70;;;;;;5036701;28;20196;-85
2022/08/09 08:48:38;;;;;;;4.10;1.90;;;20.80;70.70;;;;;;5036703;28;20172;-85
2022/08/09 08:51:05;;;;;;;3.78;1.77;;;20.90;71.10;;;;;;5036580;28;20263;-85
2022/08/09 08:53:31;;;;;;;4.70;1.95;;;20.90;69.90;;;;;;5036653;28;20667;-85
2022/08/09 08:55:57;;;;;;;4.10;1.55;;;21.10;70.80;;;;;;5054668;28;20192;-85
2022/08/09 08:58:23;;;;;;;3.03;1.30;;;21.20;67.30;;;;;;5036588;28;20649;-84
2022/08/09 09:00:49;;;;;;;3.38;1.70;;;21.30;65.10;;;;;;5054591;28;20258;-85
2022/08/09 09:03:15;;;;;;;3.63;1.95;;;21.40;66.10;;;;;;5036492;28;20286;-86
2022/08/09 09:05:41;;;;;;;4.05;1.80;;;21.30;65.80;;;;;;5036409;28;20616;-85
2022/08/09 09:08:08;;;;;;;6.80;1.73;;;21.30;66.70;;;;;;5036379;28;20268;-85
2022/08/09 09:10:36;;;;;;;4.38;1.40;;;21.50;67.30;;;;;;5054410;28;20175;-84
2022/08/09 09:13:02;;;;;;;4.60;1.42;;;21.80;67.00;;;;;;5036280;28;20180;-85
2022/08/09 09:15:27;;;;;;;1.73;1.20;;;21.90;65.20;;;;;;5054053;28;20209;-85
2022/08/09 09:17:53;;;;;;;7.18;1.48;;;22.00;64.20;;;;;;5053990;28;20179;-86
2022/08/09 09:20:19;;;;;;;5.35;1.50;;;22.30;63.80;;;;;;5036062;28;20172;-86
2022/08/09 09:22:52;;;;;;;3.50;1.55;;;22.30;63.30;;;;;;5036125;28;20230;-86
2022/08/09 09:25:40;;;;;;;7.07;1.95;;;22.70;64.10;;;;;;5036047;28;20760;-87
2022/08/09 09:28:07;;;;;;;3.17;1.40;;;22.80;62.80;;;;;;5054183;28;20172;-84
2022/08/09 09:30:33;;;;;;;4.93;1.70;;;22.90;62.60;;;;;;5036224;28;20641;-85
2022/08/09 09:33:11;;;;;;;3.80;1.70;;;22.90;62.30;;;;;;5036336;28;20676;-85
2022/08/09 09:35:52;;;;;;;2.70;1.42;;;22.70;61.60;;;;;;5053991;28;20606;-84
2022/08/09 09:38:21;;;;;;;3.88;1.40;;;22.90;62.90;;;;;;5035827;28;20664;-84
2022/08/09 09:40:47;;;;;;;4.63;1.50;;;23.00;62.60;;;;;;5053653;28;20176;-84
2022/08/09 09:43:18;;;;;;;2.63;1.40;;;23.00;61.00;;;;;;5053456;28;20195;-85
2022/08/09 09:45:52;;;;;;;7.07;1.40;;;22.90;61.50;;;;;;5035600;28;20188;-84
2022/08/09 09:48:19;;;;;;;2.72;1.30;;;23.00;61.30;;;;;;5053548;28;20231;-85
2022/08/09 09:50:48;;;;;;;3.00;1.45;;;22.90;62.10;;;;;;5035557;28;20179;-84
2022/08/09 09:53:26;;;;;;;3.50;1.27;;;23.00;62.60;;;;;;5035438;28;20202;-85
2022/08/09 09:55:57;;;;;;;3.05;1.48;;;22.90;61.20;;;;;;5035972;28;20196;-85
2022/08/09 09:58:23;;;;;;;2.88;1.20;;;22.60;60.70;;;;;;5053605;28;20203;-84
2022/08/09 10:00:55;;;;;;;4.68;1.45;;;22.80;61.20;;;;;;5035445;28;20204;-84
2022/08/09 10:03:43;;;;;;;4.28;1.30;;;23.10;61.60;;;;;;5053489;28;20581;-84
2022/08/09 10:06:10;;;;;;;2.25;1.33;;;23.00;61.00;;;;;;5035504;28;20223;-84
2022/08/09 10:08:35;;;;;;;2.75;1.20;;;23.30;60.40;;;;;;5053107;28;20196;-84
2022/08/09 10:11:21;;;;;;;2.90;1.33;;;23.30;59.80;;;;;;5053265;28;20657;-85
2022/08/09 10:13:47;;;;;;;2.15;1.10;;;23.40;60.00;;;;;;5035249;28;20167;-84
2022/08/09 10:16:14;;;;;;;5.53;1.55;;;23.30;59.90;;;;;;5035100;28;20228;-85
2022/08/09 10:18:49;;;;;;;2.67;1.13;;;23.30;58.70;;;;;;5035160;28;20183;-85
2022/08/09 10:21:15;;;;;;;3.95;1.27;;;22.80;60.10;;;;;;5035279;28;20234;-88
2022/08/09 10:23:42;;;;;;;10.10;1.92;;;22.60;62.00;;;;;;5035156;28;20638;-84
2022/08/09 10:26:08;;;;;;;3.28;1.33;;;22.70;63.40;;;;;;5052751;28;20666;-84
2022/08/09 10:28:34;;;;;;;3.78;1.55;;;22.70;63.50;;;;;;5035098;28;20168;-85
2022/08/09 10:31:00;;;;;;;4.75;1.45;;;22.80;62.10;;;;;;5039100;28;20532;-86
2022/08/09 10:33:25;;;;;;;3.85;2.03;;;23.00;60.70;;;;;;5041869;28;20183;-86
2022/08/09 10:35:51;;;;;;;1.83;1.40;;;23.10;61.10;;;;;;5041732;28;20191;-86
2022/08/09 10:38:17;;;;;;;2.55;1.63;;;23.10;62.10;;;;;;5041817;28;20184;-86
2022/08/09 10:40:44;;;;;;;2.65;1.40;;;23.10;61.50;;;;;;5059437;28;20175;-86
2022/08/09 10:43:11;;;;;;;1.83;1.15;;;22.90;64.30;;;;;;5041670;28;20200;-86
2022/08/09 10:45:41;;;;;;;2.55;1.52;;;23.00;61.90;;;;;;5059797;28;20171;-86
2022/08/09 10:48:16;;;;;;;3.80;1.58;;;22.90;63.20;;;;;;5059884;28;20199;-88
2022/08/09 10:51:14;;;;;;;3.60;1.33;;;22.90;63.50;;;;;;5041780;28;20170;-87
2022/08/09 10:53:57;;;;;;;7.32;1.73;;;23.50;61.70;;;;;;5042019;28;20629;-89
2022/08/09 10:56:32;;;;;;;2.65;1.58;;;23.50;59.40;;;;;;5059859;28;20237;-87
2022/08/09 10:59:18;;;;;;;5.15;1.58;;;23.80;59.20;;;;;;5041768;28;20167;-85
2022/08/09 11:01:44;;;;;;;4.32;1.70;;;23.90;58.30;;;;;;5041936;28;20630;-85
2022/08/09 11:04:12;;;;;;;5.85;1.50;;;23.20;60.50;;;;;;5041901;28;20211;-87
2022/08/09 11:06:40;;;;;;;2.25;1.33;;;23.70;61.00;;;;;;5041580;28;20192;-86
2022/08/09 11:09:07;;;;;;;2.67;1.60;;;23.60;59.20;;;;;;5059922;28;20218;-87
2022/08/09 11:12:15;;;;;;;3.38;1.52;;;24.10;59.70;;;;;;5041549;28;20176;-87
2022/08/09 11:14:47;;;;;;;4.05;1.38;;;24.10;56.40;;;;;;4962073;28;20177;-85
2022/08/09 11:17:13;;;;;;;4.18;1.58;;;23.70;58.80;;;;;;4962510;28;20199;-87
2022/08/09 11:20:00;;;;;;;2.83;1.52;;;24.20;58.30;;;;;;5021846;28;20585;-87
2022/08/09 11:22:43;;;;;;;4.55;1.50;;;24.50;56.60;;;;;;5041369;28;20194;-87
2022/08/09 11:25:15;;;;;;;1.83;1.25;;;24.60;56.30;;;;;;5041734;28;20178;-87
2022/08/09 11:27:44;;;;;;;6.90;1.40;;;24.60;57.10;;;;;;5041922;28;20584;-87
2022/08/09 11:30:13;;;;;;;3.33;1.20;;;24.60;55.30;;;;;;5059443;28;20164;-87
2022/08/09 11:32:43;;;;;;;1.88;0.95;;;24.60;54.30;;;;;;5041708;28;20172;-86
2022/08/09 11:35:26;;;;;;;1.83;1.27;;;24.40;54.20;;;;;;5041698;28;20176;-86
2022/08/09 11:37:55;;;;;;;1.65;1.08;;;24.40;56.00;;;;;;5041433;28;20225;-86
2022/08/09 11:40:28;;;;;;;4.85;1.25;;;24.40;54.50;;;;;;5059338;28;20180;-86
2022/08/09 11:42:55;;;;;;;1.98;1.20;;;24.50;53.80;;;;;;5057104;28;20277;-86
2022/08/09 11:45:46;;;;;;;2.60;1.00;;;24.50;54.70;;;;;;5038143;28;20164;-86
2022/08/09 11:48:17;;;;;;;1.95;1.17;;;24.90;51.80;;;;;;5055401;28;20183;-87
2022/08/09 11:50:55;;;;;;;3.70;1.17;;;25.10;53.90;;;;;;5038275;28;20546;-86
2022/08/09 11:53:23;;;;;;;4.57;1.25;;;25.60;52.30;;;;;;5037881;28;20266;-86
2022/08/09 11:55:50;;;;;;;2.20;1.00;;;25.80;51.20;;;;;;5055735;28;20226;-86
2022/08/09 11:58:19;;;;;;;3.45;1.40;;;25.70;49.10;;;;;;5056187;28;20187;-86
2022/08/09 12:00:53;;;;;;;6.43;1.50;;;25.60;50.30;;;;;;5037923;28;20214;-87
2022/08/09 12:03:23;;;;;;;2.75;1.35;;;26.00;50.80;;;;;;5037798;28;20285;-86
2022/08/09 12:05:54;;;;;;;5.85;1.17;;;26.40;48.90;;;;;;5037832;28;20322;-86
2022/08/09 12:08:21;;;;;;;5.78;1.20;;;26.60;47.90;;;;;;5037864;28;20171;-86
2022/08/09 12:10:49;;;;;;;8.38;1.20;;;26.30;48.00;;;;;;5037817;28;20171;-88
2022/08/09 12:13:35;;;;;;;3.35;0.98;;;26.30;47.50;;;;;;5037546;28;20639;-86
2022/08/09 12:16:10;;;;;;;1.65;0.90;;;26.20;48.80;;;;;;5038428;28;20294;-86
2022/08/09 12:18:37;;;;;;;4.80;1.20;;;26.20;47.00;;;;;;5055300;28;20282;-86
2022/08/09 12:21:06;;;;;;;2.70;0.90;;;26.20;48.40;;;;;;5037525;28;20180;-86
2022/08/09 12:23:33;;;;;;;5.30;1.02;;;26.50;47.50;;;;;;5037167;28;20579;-86
2022/08/09 12:25:59;;;;;;;2.10;0.93;;;26.80;46.90;;;;;;5037163;28;20196;-85
2022/08/09 12:28:25;;;;;;;1.52;0.70;;;26.70;47.60;;;;;;5037513;28;20553;-85
2022/08/09 12:30:52;;;;;;;5.22;0.88;;;26.70;48.10;;;;;;5037138;28;20200;-85
2022/08/09 12:33:19;;;;;;;4.95;0.95;;;27.20;47.60;;;;;;5037148;28;20175;-85
2022/08/09 12:35:45;;;;;;;3.05;0.70;;;27.40;46.20;;;;;;5037044;28;20728;-85
2022/08/09 12:38:22;;;;;;;7.00;1.15;;;27.30;46.80;;;;;;5037629;28;20274;-84
2022/08/09 12:40:50;;;;;;;1.45;0.77;;;27.40;47.90;;;;;;5037498;28;20164;-85
2022/08/09 12:43:19;;;;;;;1.00;0.90;;;27.70;47.40;;;;;;5037737;28;20696;-85
2022/08/09 12:45:46;;;;;;;3.05;1.00;;;27.30;46.70;;;;;;5037397;28;20196;-85
2022/08/09 12:48:13;;;;;;;1.77;1.02;;;26.50;48.60;;;;;;5037257;28;20176;-85
2022/08/09 12:50:39;;;;;;;1.27;0.75;;;26.60;49.80;;;;;;5057609;28;20172;-85
2022/08/09 12:53:21;;;;;;;1.90;1.00;;;27.20;47.50;;;;;;5062765;28;20255;-84